NOZ173 ENBR-ENAL
Flight info
| Callsign | NOZ173 |
|---|---|
| Flight time | N/A |
| Altitude | 21000 |
| Route | OLDAS DCT TUMIM |
| Aircraft | B38M/M-SDE1FGHILORVWXY/HB1 |
Departure
| Time | 2026-05-07 17:21 |
|---|---|
| Airport | Bergen Airport, Flesland (ENBR) |
Arrival
| Time | N/A |
|---|---|
| Airport | Ålesund Airport (ENAL) |
| Time | Latitude | Longitude | Altitude | Speed | Heading |
|---|---|---|---|---|---|
| 2026-05-07 17:05 | 60.28696 | 5.22910 | 176 ft | 0 kts | 81° |
| 2026-05-07 17:12 | 60.28694 | 5.22885 | 176 ft | 3 kts | 81° |
| 2026-05-07 17:12 | 60.28691 | 5.22849 | 176 ft | 3 kts | 81° |
| 2026-05-07 17:12 | 60.28689 | 5.22814 | 176 ft | 3 kts | 81° |
| 2026-05-07 17:12 | 60.28686 | 5.22779 | 176 ft | 3 kts | 81° |
| 2026-05-07 17:13 | 60.28685 | 5.22765 | 176 ft | 0 kts | 81° |
| 2026-05-07 17:15 | 60.28687 | 5.22777 | 176 ft | 1 kts | 63° |
| 2026-05-07 17:15 | 60.28689 | 5.22779 | 176 ft | 0 kts | 37° |
| 2026-05-07 17:15 | 60.28697 | 5.22773 | 176 ft | 4 kts | 331° |
| 2026-05-07 17:15 | 60.28715 | 5.22651 | 176 ft | 14 kts | 260° |
| 2026-05-07 17:16 | 60.28689 | 5.22450 | 176 ft | 13 kts | 251° |
| 2026-05-07 17:16 | 60.28736 | 5.22341 | 176 ft | 13 kts | 352° |
| 2026-05-07 17:16 | 60.28833 | 5.22310 | 176 ft | 15 kts | 350° |
| 2026-05-07 17:16 | 60.28943 | 5.22270 | 176 ft | 17 kts | 350° |
| 2026-05-07 17:17 | 60.29071 | 5.22228 | 176 ft | 20 kts | 351° |
| 2026-05-07 17:17 | 60.29215 | 5.22180 | 180 ft | 21 kts | 351° |
| 2026-05-07 17:17 | 60.29366 | 5.22130 | 179 ft | 24 kts | 351° |
| 2026-05-07 17:17 | 60.29542 | 5.22070 | 177 ft | 27 kts | 349° |
| 2026-05-07 17:18 | 60.29748 | 5.22002 | 171 ft | 32 kts | 351° |
| 2026-05-07 17:18 | 60.29971 | 5.21935 | 170 ft | 33 kts | 351° |
| 2026-05-07 17:18 | 60.30165 | 5.21869 | 173 ft | 28 kts | 350° |
| 2026-05-07 17:18 | 60.30340 | 5.21809 | 174 ft | 17 kts | 350° |
| 2026-05-07 17:19 | 60.30416 | 5.21772 | 174 ft | 10 kts | 336° |
| 2026-05-07 17:19 | 60.30442 | 5.21698 | 174 ft | 8 kts | 280° |
| 2026-05-07 17:19 | 60.30434 | 5.21574 | 173 ft | 12 kts | 247° |
| 2026-05-07 17:19 | 60.30382 | 5.21481 | 171 ft | 7 kts | 187° |
| 2026-05-07 17:20 | 60.30359 | 5.21485 | 170 ft | 0 kts | 171° |
| 2026-05-07 17:20 | 60.30101 | 5.21570 | 171 ft | 80 kts | 171° |
| 2026-05-07 17:21 | 60.29298 | 5.21833 | 176 ft | 152 kts | 171° |
| 2026-05-07 17:21 | 60.28078 | 5.22227 | 394 ft | 193 kts | 173° |
| 2026-05-07 17:21 | 60.26707 | 5.22558 | 1301 ft | 199 kts | 175° |
| 2026-05-07 17:21 | 60.25313 | 5.22931 | 2253 ft | 210 kts | 169° |
| 2026-05-07 17:22 | 60.23809 | 5.23560 | 2923 ft | 232 kts | 160° |
| 2026-05-07 17:22 | 60.22591 | 5.25564 | 4040 ft | 233 kts | 122° |
| 2026-05-07 17:22 | 60.22186 | 5.28820 | 4843 ft | 254 kts | 89° |
| 2026-05-07 17:22 | 60.22755 | 5.32283 | 5767 ft | 270 kts | 56° |
| 2026-05-07 17:23 | 60.24211 | 5.34648 | 6787 ft | 283 kts | 24° |
| 2026-05-07 17:23 | 60.26174 | 5.35203 | 7662 ft | 290 kts | 351° |
| 2026-05-07 17:23 | 60.28159 | 5.34456 | 8671 ft | 294 kts | 349° |
| 2026-05-07 17:23 | 60.30203 | 5.33889 | 9670 ft | 298 kts | 350° |
| 2026-05-07 17:24 | 60.32283 | 5.33377 | 10524 ft | 307 kts | 350° |
| 2026-05-07 17:24 | 60.34481 | 5.32904 | 10997 ft | 327 kts | 351° |
| 2026-05-07 17:24 | 60.36823 | 5.32470 | 11396 ft | 347 kts | 352° |
| 2026-05-07 17:24 | 60.39302 | 5.32028 | 11737 ft | 367 kts | 352° |
| 2026-05-07 17:25 | 60.41919 | 5.31569 | 12076 ft | 385 kts | 352° |
| 2026-05-07 17:25 | 60.44635 | 5.31073 | 12550 ft | 397 kts | 351° |
| 2026-05-07 17:25 | 60.47346 | 5.30545 | 13381 ft | 398 kts | 350° |
| 2026-05-07 17:25 | 60.50114 | 5.29970 | 14093 ft | 402 kts | 350° |
| 2026-05-07 17:26 | 60.52908 | 5.29372 | 14746 ft | 405 kts | 349° |
| 2026-05-07 17:26 | 60.55720 | 5.28757 | 15406 ft | 408 kts | 349° |
| 2026-05-07 17:26 | 60.58551 | 5.28134 | 16056 ft | 411 kts | 349° |
| 2026-05-07 17:26 | 60.61405 | 5.27502 | 16677 ft | 414 kts | 349° |
| 2026-05-07 17:27 | 60.64287 | 5.26861 | 17287 ft | 418 kts | 349° |
| 2026-05-07 17:27 | 60.67185 | 5.26214 | 17933 ft | 421 kts | 349° |
| 2026-05-07 17:27 | 60.70103 | 5.25562 | 18505 ft | 424 kts | 349° |
| 2026-05-07 17:27 | 60.73043 | 5.24903 | 19002 ft | 426 kts | 348° |
| 2026-05-07 17:28 | 60.75997 | 5.24236 | 19531 ft | 428 kts | 348° |
| 2026-05-07 17:28 | 60.78962 | 5.23567 | 20034 ft | 430 kts | 348° |
| 2026-05-07 17:28 | 60.81947 | 5.22891 | 20541 ft | 432 kts | 348° |
| 2026-05-07 17:28 | 60.84949 | 5.22208 | 20981 ft | 436 kts | 348° |
| 2026-05-07 17:29 | 60.87990 | 5.21522 | 21108 ft | 443 kts | 348° |
| 2026-05-07 17:29 | 60.91064 | 5.20824 | 21097 ft | 444 kts | 348° |
| 2026-05-07 17:29 | 60.94130 | 5.20121 | 21113 ft | 444 kts | 348° |
| 2026-05-07 17:29 | 60.97195 | 5.19412 | 21107 ft | 443 kts | 347° |
| 2026-05-07 17:30 | 61.00263 | 5.18703 | 21114 ft | 443 kts | 347° |
| 2026-05-07 17:30 | 61.03337 | 5.18006 | 21089 ft | 445 kts | 349° |
| 2026-05-07 17:30 | 61.06458 | 5.18262 | 21098 ft | 457 kts | 5° |
| 2026-05-07 17:30 | 61.09522 | 5.20246 | 21108 ft | 468 kts | 20° |
| 2026-05-07 17:31 | 61.12425 | 5.23334 | 21114 ft | 470 kts | 23° |
| 2026-05-07 17:31 | 61.15314 | 5.26512 | 21103 ft | 471 kts | 23° |
| 2026-05-07 17:31 | 61.18195 | 5.29735 | 21100 ft | 471 kts | 24° |
| 2026-05-07 17:31 | 61.21071 | 5.32987 | 21103 ft | 471 kts | 24° |
| 2026-05-07 17:32 | 61.23945 | 5.36251 | 21137 ft | 471 kts | 24° |
| 2026-05-07 17:32 | 61.26817 | 5.39522 | 21123 ft | 470 kts | 24° |
| 2026-05-07 17:32 | 61.29679 | 5.42789 | 21104 ft | 469 kts | 24° |
| 2026-05-07 17:32 | 61.31573 | 5.44955 | 21090 ft | 469 kts | 24° |
| 2026-05-07 17:33 | 61.35402 | 5.49342 | 21110 ft | 470 kts | 24° |
| 2026-05-07 17:33 | 61.38262 | 5.52629 | 21102 ft | 470 kts | 24° |
| 2026-05-07 17:33 | 61.41068 | 5.55859 | 21110 ft | 465 kts | 24° |
| 2026-05-07 17:33 | 61.43896 | 5.59121 | 21091 ft | 464 kts | 24° |
| 2026-05-07 17:34 | 61.46717 | 5.62381 | 21109 ft | 464 kts | 24° |
| 2026-05-07 17:34 | 61.49538 | 5.65649 | 21065 ft | 463 kts | 24° |
| 2026-05-07 17:34 | 61.52390 | 5.68961 | 21079 ft | 463 kts | 24° |
| 2026-05-07 17:34 | 61.55165 | 5.72189 | 21088 ft | 462 kts | 24° |
| 2026-05-07 17:35 | 61.57974 | 5.75462 | 21075 ft | 461 kts | 24° |
| 2026-05-07 17:35 | 61.60781 | 5.78742 | 21082 ft | 462 kts | 24° |
| 2026-05-07 17:35 | 61.63590 | 5.82030 | 21105 ft | 463 kts | 24° |
| 2026-05-07 17:35 | 61.66402 | 5.85327 | 21115 ft | 462 kts | 24° |
| 2026-05-07 17:36 | 61.69215 | 5.88603 | 21100 ft | 460 kts | 22° |
| 2026-05-07 17:36 | 61.72174 | 5.90928 | 21069 ft | 449 kts | 6° |
| 2026-05-07 17:36 | 61.75202 | 5.91500 | 21125 ft | 422 kts | 352° |
| 2026-05-07 17:36 | 61.78063 | 5.91220 | 21102 ft | 403 kts | 350° |
| 2026-05-07 17:37 | 61.80803 | 5.90828 | 21138 ft | 386 kts | 349° |
| 2026-05-07 17:37 | 61.83412 | 5.90395 | 21165 ft | 368 kts | 348° |
| 2026-05-07 17:37 | 61.85910 | 5.89947 | 21156 ft | 353 kts | 348° |
| 2026-05-07 17:37 | 61.88309 | 5.89495 | 21142 ft | 339 kts | 347° |
| 2026-05-07 17:38 | 61.90614 | 5.89051 | 21140 ft | 326 kts | 347° |
| 2026-05-07 17:38 | 61.92856 | 5.88612 | 21120 ft | 322 kts | 347° |
| 2026-05-07 17:38 | 61.95081 | 5.88175 | 21111 ft | 321 kts | 347° |
| 2026-05-07 17:38 | 61.97303 | 5.87740 | 21106 ft | 320 kts | 347° |
| 2026-05-07 17:39 | 61.99525 | 5.87304 | 21098 ft | 320 kts | 347° |
| 2026-05-07 17:39 | 62.01748 | 5.86867 | 21128 ft | 321 kts | 347° |
| 2026-05-07 17:39 | 62.03974 | 5.86428 | 21073 ft | 321 kts | 347° |
| 2026-05-07 17:39 | 62.06192 | 5.85991 | 21084 ft | 320 kts | 347° |